sensor_id;sensor_type;location;lat;lon;timestamp;P1;durP1;ratioP1;P2;durP2;ratioP2
81950;SDS011;71452;52.562;5.642;2024-01-30T00:02:04;10.40;;;4.93;;
81950;SDS011;71452;52.562;5.642;2024-01-30T00:04:35;10.80;;;5.60;;
81950;SDS011;71452;52.562;5.642;2024-01-30T00:07:04;9.13;;;6.00;;
81950;SDS011;71452;52.562;5.642;2024-01-30T00:09:34;8.13;;;5.25;;
81950;SDS011;71452;52.562;5.642;2024-01-30T00:12:03;8.80;;;4.95;;
81950;SDS011;71452;52.562;5.642;2024-01-30T00:14:32;9.23;;;5.18;;
81950;SDS011;71452;52.562;5.642;2024-01-30T00:17:02;8.15;;;4.80;;
81950;SDS011;71452;52.562;5.642;2024-01-30T00:19:31;8.35;;;5.32;;
81950;SDS011;71452;52.562;5.642;2024-01-30T00:22:03;7.88;;;4.60;;
81950;SDS011;71452;52.562;5.642;2024-01-30T00:24:33;8.20;;;4.95;;
81950;SDS011;71452;52.562;5.642;2024-01-30T00:27:02;8.85;;;4.72;;
81950;SDS011;71452;52.562;5.642;2024-01-30T00:29:31;12.75;;;6.53;;
81950;SDS011;71452;52.562;5.642;2024-01-30T00:32:01;10.75;;;5.57;;
81950;SDS011;71452;52.562;5.642;2024-01-30T00:34:30;8.35;;;5.22;;
81950;SDS011;71452;52.562;5.642;2024-01-30T00:36:59;10.43;;;4.90;;
81950;SDS011;71452;52.562;5.642;2024-01-30T00:39:30;10.27;;;5.03;;
81950;SDS011;71452;52.562;5.642;2024-01-30T00:42:00;6.82;;;4.40;;
81950;SDS011;71452;52.562;5.642;2024-01-30T00:44:29;6.60;;;4.20;;
81950;SDS011;71452;52.562;5.642;2024-01-30T00:46:58;11.88;;;5.15;;
81950;SDS011;71452;52.562;5.642;2024-01-30T00:49:28;13.73;;;5.35;;
81950;SDS011;71452;52.562;5.642;2024-01-30T00:51:57;9.32;;;5.20;;
81950;SDS011;71452;52.562;5.642;2024-01-30T00:54:26;6.93;;;4.55;;
81950;SDS011;71452;52.562;5.642;2024-01-30T00:56:57;9.70;;;5.20;;
81950;SDS011;71452;52.562;5.642;2024-01-30T00:59:27;9.73;;;5.50;;
81950;SDS011;71452;52.562;5.642;2024-01-30T01:01:56;9.23;;;4.53;;
81950;SDS011;71452;52.562;5.642;2024-01-30T01:04:25;7.30;;;4.43;;
81950;SDS011;71452;52.562;5.642;2024-01-30T01:06:54;9.02;;;4.55;;
81950;SDS011;71452;52.562;5.642;2024-01-30T01:09:24;6.70;;;3.88;;
81950;SDS011;71452;52.562;5.642;2024-01-30T01:11:53;9.20;;;4.93;;
81950;SDS011;71452;52.562;5.642;2024-01-30T01:14:24;9.05;;;5.10;;
81950;SDS011;71452;52.562;5.642;2024-01-30T01:16:54;9.70;;;4.72;;
81950;SDS011;71452;52.562;5.642;2024-01-30T01:19:20;6.57;;;4.43;;
81950;SDS011;71452;52.562;5.642;2024-01-30T01:21:50;10.63;;;6.07;;
81950;SDS011;71452;52.562;5.642;2024-01-30T01:24:19;7.85;;;4.18;;
81950;SDS011;71452;52.562;5.642;2024-01-30T01:26:48;8.73;;;5.22;;
81950;SDS011;71452;52.562;5.642;2024-01-30T01:29:17;9.95;;;5.38;;
81950;SDS011;71452;52.562;5.642;2024-01-30T01:31:56;8.07;;;4.20;;
81950;SDS011;71452;52.562;5.642;2024-01-30T01:34:26;8.00;;;5.07;;
81950;SDS011;71452;52.562;5.642;2024-01-30T01:36:55;8.75;;;4.03;;
81950;SDS011;71452;52.562;5.642;2024-01-30T01:39:24;8.20;;;4.28;;
81950;SDS011;71452;52.562;5.642;2024-01-30T01:41:53;10.52;;;4.60;;
81950;SDS011;71452;52.562;5.642;2024-01-30T01:44:22;7.65;;;4.88;;
81950;SDS011;71452;52.562;5.642;2024-01-30T01:46:51;7.43;;;4.63;;
81950;SDS011;71452;52.562;5.642;2024-01-30T01:49:25;5.68;;;4.32;;
81950;SDS011;71452;52.562;5.642;2024-01-30T01:51:55;9.68;;;4.93;;
81950;SDS011;71452;52.562;5.642;2024-01-30T01:54:26;7.50;;;4.28;;
81950;SDS011;71452;52.562;5.642;2024-01-30T01:56:57;10.65;;;4.30;;
81950;SDS011;71452;52.562;5.642;2024-01-30T01:59:26;7.82;;;3.85;;
81950;SDS011;71452;52.562;5.642;2024-01-30T02:01:55;7.22;;;3.78;;
81950;SDS011;71452;52.562;5.642;2024-01-30T02:04:27;6.90;;;4.35;;
81950;SDS011;71452;52.562;5.642;2024-01-30T02:06:56;6.65;;;4.28;;
81950;SDS011;71452;52.562;5.642;2024-01-30T02:09:26;9.20;;;4.97;;
81950;SDS011;71452;52.562;5.642;2024-01-30T02:11:55;7.15;;;3.60;;
81950;SDS011;71452;52.562;5.642;2024-01-30T02:14:24;7.43;;;4.10;;
81950;SDS011;71452;52.562;5.642;2024-01-30T02:16:53;7.70;;;3.67;;
81950;SDS011;71452;52.562;5.642;2024-01-30T02:19:22;6.88;;;4.28;;
81950;SDS011;71452;52.562;5.642;2024-01-30T02:21:56;10.10;;;4.70;;
81950;SDS011;71452;52.562;5.642;2024-01-30T02:24:26;6.40;;;4.45;;
81950;SDS011;71452;52.562;5.642;2024-01-30T02:26:55;7.47;;;4.20;;
81950;SDS011;71452;52.562;5.642;2024-01-30T02:29:24;9.70;;;4.53;;
81950;SDS011;71452;52.562;5.642;2024-01-30T02:31:53;7.93;;;4.07;;
81950;SDS011;71452;52.562;5.642;2024-01-30T02:34:23;7.45;;;4.68;;
81950;SDS011;71452;52.562;5.642;2024-01-30T02:36:52;8.15;;;4.72;;
81950;SDS011;71452;52.562;5.642;2024-01-30T02:39:24;13.25;;;5.53;;
81950;SDS011;71452;52.562;5.642;2024-01-30T02:41:53;9.77;;;3.88;;
81950;SDS011;71452;52.562;5.642;2024-01-30T02:44:22;5.85;;;3.45;;
81950;SDS011;71452;52.562;5.642;2024-01-30T02:46:51;7.35;;;4.32;;
81950;SDS011;71452;52.562;5.642;2024-01-30T02:49:22;6.78;;;3.92;;
81950;SDS011;71452;52.562;5.642;2024-01-30T02:51:51;8.13;;;4.53;;
81950;SDS011;71452;52.562;5.642;2024-01-30T02:54:25;8.55;;;3.92;;
81950;SDS011;71452;52.562;5.642;2024-01-30T02:56:56;7.45;;;3.85;;
81950;SDS011;71452;52.562;5.642;2024-01-30T02:59:25;7.60;;;4.63;;
81950;SDS011;71452;52.562;5.642;2024-01-30T03:01:54;5.43;;;3.35;;
81950;SDS011;71452;52.562;5.642;2024-01-30T03:04:23;8.18;;;4.38;;
81950;SDS011;71452;52.562;5.642;2024-01-30T03:06:53;7.32;;;4.05;;
81950;SDS011;71452;52.562;5.642;2024-01-30T03:09:24;7.55;;;3.22;;
81950;SDS011;71452;52.562;5.642;2024-01-30T03:11:54;8.13;;;3.63;;
81950;SDS011;71452;52.562;5.642;2024-01-30T03:14:23;10.63;;;4.60;;
81950;SDS011;71452;52.562;5.642;2024-01-30T03:16:52;8.57;;;3.90;;
81950;SDS011;71452;52.562;5.642;2024-01-30T03:19:21;7.03;;;3.58;;
81950;SDS011;71452;52.562;5.642;2024-01-30T03:21:51;5.68;;;3.88;;
81950;SDS011;71452;52.562;5.642;2024-01-30T03:24:21;6.93;;;4.03;;
81950;SDS011;71452;52.562;5.642;2024-01-30T03:26:53;8.27;;;4.53;;
81950;SDS011;71452;52.562;5.642;2024-01-30T03:29:22;7.53;;;3.75;;
81950;SDS011;71452;52.562;5.642;2024-01-30T03:31:51;8.02;;;3.83;;
81950;SDS011;71452;52.562;5.642;2024-01-30T03:34:20;8.10;;;3.70;;
81950;SDS011;71452;52.562;5.642;2024-01-30T03:36:49;9.85;;;5.03;;
81950;SDS011;71452;52.562;5.642;2024-01-30T03:39:18;5.93;;;3.22;;
81950;SDS011;71452;52.562;5.642;2024-01-30T03:41:47;5.55;;;3.65;;
81950;SDS011;71452;52.562;5.642;2024-01-30T03:44:19;4.88;;;3.63;;
81950;SDS011;71452;52.562;5.642;2024-01-30T03:46:48;8.23;;;4.05;;
81950;SDS011;71452;52.562;5.642;2024-01-30T03:49:17;6.40;;;3.53;;
81950;SDS011;71452;52.562;5.642;2024-01-30T03:51:46;8.45;;;3.67;;
81950;SDS011;71452;52.562;5.642;2024-01-30T03:54:16;8.50;;;4.00;;
81950;SDS011;71452;52.562;5.642;2024-01-30T03:56:45;5.38;;;3.17;;
81950;SDS011;71452;52.562;5.642;2024-01-30T03:59:14;5.07;;;3.17;;
81950;SDS011;71452;52.562;5.642;2024-01-30T04:01:50;6.85;;;3.55;;
81950;SDS011;71452;52.562;5.642;2024-01-30T04:04:19;5.85;;;3.38;;
81950;SDS011;71452;52.562;5.642;2024-01-30T04:06:48;6.53;;;3.83;;
81950;SDS011;71452;52.562;5.642;2024-01-30T04:09:17;8.73;;;4.32;;
81950;SDS011;71452;52.562;5.642;2024-01-30T04:11:47;8.77;;;4.00;;
81950;SDS011;71452;52.562;5.642;2024-01-30T04:14:16;7.20;;;3.72;;
81950;SDS011;71452;52.562;5.642;2024-01-30T04:16:45;7.07;;;3.72;;
81950;SDS011;71452;52.562;5.642;2024-01-30T04:19:17;7.03;;;3.92;;
81950;SDS011;71452;52.562;5.642;2024-01-30T04:21:46;8.27;;;3.88;;
81950;SDS011;71452;52.562;5.642;2024-01-30T04:24:15;6.43;;;4.07;;
81950;SDS011;71452;52.562;5.642;2024-01-30T04:26:44;8.80;;;4.18;;
81950;SDS011;71452;52.562;5.642;2024-01-30T04:29:14;6.63;;;4.43;;
81950;SDS011;71452;52.562;5.642;2024-01-30T04:31:43;6.38;;;3.70;;
81950;SDS011;71452;52.562;5.642;2024-01-30T04:34:12;6.82;;;4.03;;
81950;SDS011;71452;52.562;5.642;2024-01-30T04:36:45;6.82;;;4.45;;
81950;SDS011;71452;52.562;5.642;2024-01-30T04:39:14;8.75;;;4.63;;
81950;SDS011;71452;52.562;5.642;2024-01-30T04:41:43;7.35;;;5.20;;
81950;SDS011;71452;52.562;5.642;2024-01-30T04:44:14;8.40;;;4.22;;
81950;SDS011;71452;52.562;5.642;2024-01-30T04:46:43;9.07;;;4.68;;
81950;SDS011;71452;52.562;5.642;2024-01-30T04:49:12;8.40;;;4.78;;
81950;SDS011;71452;52.562;5.642;2024-01-30T04:51:41;7.72;;;4.80;;
81950;SDS011;71452;52.562;5.642;2024-01-30T04:54:13;9.60;;;4.60;;
81950;SDS011;71452;52.562;5.642;2024-01-30T04:56:42;7.55;;;4.28;;
81950;SDS011;71452;52.562;5.642;2024-01-30T04:59:11;6.63;;;4.15;;
81950;SDS011;71452;52.562;5.642;2024-01-30T05:01:40;8.10;;;3.80;;
81950;SDS011;71452;52.562;5.642;2024-01-30T05:04:09;8.43;;;4.38;;
81950;SDS011;71452;52.562;5.642;2024-01-30T05:06:40;6.30;;;3.75;;
81950;SDS011;71452;52.562;5.642;2024-01-30T05:09:10;6.38;;;3.72;;
81950;SDS011;71452;52.562;5.642;2024-01-30T05:11:41;7.38;;;3.95;;
81950;SDS011;71452;52.562;5.642;2024-01-30T05:14:11;7.60;;;4.20;;
81950;SDS011;71452;52.562;5.642;2024-01-30T05:16:40;7.68;;;3.60;;
81950;SDS011;71452;52.562;5.642;2024-01-30T05:19:12;5.57;;;3.70;;
81950;SDS011;71452;52.562;5.642;2024-01-30T05:21:42;5.90;;;3.90;;
81950;SDS011;71452;52.562;5.642;2024-01-30T05:24:14;5.72;;;3.13;;
81950;SDS011;71452;52.562;5.642;2024-01-30T05:26:44;8.38;;;3.97;;
81950;SDS011;71452;52.562;5.642;2024-01-30T05:29:13;6.63;;;3.65;;
81950;SDS011;71452;52.562;5.642;2024-01-30T05:31:42;6.20;;;3.42;;
81950;SDS011;71452;52.562;5.642;2024-01-30T05:34:12;8.95;;;4.25;;
81950;SDS011;71452;52.562;5.642;2024-01-30T05:36:41;4.57;;;3.33;;
81950;SDS011;71452;52.562;5.642;2024-01-30T05:39:10;6.82;;;3.58;;
81950;SDS011;71452;52.562;5.642;2024-01-30T05:41:42;7.40;;;4.00;;
81950;SDS011;71452;52.562;5.642;2024-01-30T05:44:11;3.65;;;3.10;;
81950;SDS011;71452;52.562;5.642;2024-01-30T05:46:40;7.88;;;2.97;;
81950;SDS011;71452;52.562;5.642;2024-01-30T05:49:09;5.55;;;3.05;;
81950;SDS011;71452;52.562;5.642;2024-01-30T05:51:38;5.43;;;3.30;;
81950;SDS011;71452;52.562;5.642;2024-01-30T05:54:07;6.78;;;3.55;;
81950;SDS011;71452;52.562;5.642;2024-01-30T05:56:36;8.18;;;4.15;;
81950;SDS011;71452;52.562;5.642;2024-01-30T05:59:08;9.43;;;4.90;;
81950;SDS011;71452;52.562;5.642;2024-01-30T06:01:37;4.13;;;3.17;;
81950;SDS011;71452;52.562;5.642;2024-01-30T06:04:06;9.27;;;3.50;;
81950;SDS011;71452;52.562;5.642;2024-01-30T06:06:35;9.95;;;4.00;;
81950;SDS011;71452;52.562;5.642;2024-01-30T06:09:05;5.75;;;3.33;;
81950;SDS011;71452;52.562;5.642;2024-01-30T06:11:34;7.43;;;3.45;;
81950;SDS011;71452;52.562;5.642;2024-01-30T06:14:04;6.68;;;3.75;;
81950;SDS011;71452;52.562;5.642;2024-01-30T06:16:35;7.82;;;3.72;;
81950;SDS011;71452;52.562;5.642;2024-01-30T06:19:05;9.88;;;3.65;;
81950;SDS011;71452;52.562;5.642;2024-01-30T06:21:34;7.82;;;4.15;;
81950;SDS011;71452;52.562;5.642;2024-01-30T06:24:04;6.82;;;3.78;;
81950;SDS011;71452;52.562;5.642;2024-01-30T06:26:34;6.72;;;3.30;;
81950;SDS011;71452;52.562;5.642;2024-01-30T06:29:04;5.43;;;3.17;;
81950;SDS011;71452;52.562;5.642;2024-01-30T06:31:35;6.13;;;3.47;;
81950;SDS011;71452;52.562;5.642;2024-01-30T06:34:08;5.57;;;3.03;;
81950;SDS011;71452;52.562;5.642;2024-01-30T06:36:38;7.30;;;3.13;;
81950;SDS011;71452;52.562;5.642;2024-01-30T06:39:07;6.07;;;2.90;;
81950;SDS011;71452;52.562;5.642;2024-01-30T06:41:36;6.43;;;3.50;;
81950;SDS011;71452;52.562;5.642;2024-01-30T06:44:06;6.43;;;3.00;;
81950;SDS011;71452;52.562;5.642;2024-01-30T06:46:37;11.63;;;3.92;;
81950;SDS011;71452;52.562;5.642;2024-01-30T06:49:07;7.45;;;3.28;;
81950;SDS011;71452;52.562;5.642;2024-01-30T06:51:36;6.95;;;3.25;;
81950;SDS011;71452;52.562;5.642;2024-01-30T06:54:05;5.65;;;3.22;;
81950;SDS011;71452;52.562;5.642;2024-01-30T06:56:34;5.13;;;3.63;;
81950;SDS011;71452;52.562;5.642;2024-01-30T06:59:03;6.53;;;4.22;;
81950;SDS011;71452;52.562;5.642;2024-01-30T07:01:34;8.15;;;3.72;;
81950;SDS011;71452;52.562;5.642;2024-01-30T07:04:05;6.40;;;3.50;;
81950;SDS011;71452;52.562;5.642;2024-01-30T07:06:35;7.28;;;3.28;;
81950;SDS011;71452;52.562;5.642;2024-01-30T07:09:04;4.55;;;3.72;;
81950;SDS011;71452;52.562;5.642;2024-01-30T07:11:34;5.07;;;2.65;;
81950;SDS011;71452;52.562;5.642;2024-01-30T07:14:03;5.35;;;3.55;;
81950;SDS011;71452;52.562;5.642;2024-01-30T07:16:33;5.88;;;3.45;;
81950;SDS011;71452;52.562;5.642;2024-01-30T07:19:02;5.65;;;2.85;;
81950;SDS011;71452;52.562;5.642;2024-01-30T07:21:33;6.95;;;3.70;;
81950;SDS011;71452;52.562;5.642;2024-01-30T07:24:04;7.20;;;3.72;;
81950;SDS011;71452;52.562;5.642;2024-01-30T07:26:33;7.47;;;3.67;;
81950;SDS011;71452;52.562;5.642;2024-01-30T07:29:03;4.90;;;3.13;;
81950;SDS011;71452;52.562;5.642;2024-01-30T07:31:33;8.52;;;4.30;;
81950;SDS011;71452;52.562;5.642;2024-01-30T07:34:02;6.07;;;3.20;;
81950;SDS011;71452;52.562;5.642;2024-01-30T07:36:34;5.38;;;3.85;;
81950;SDS011;71452;52.562;5.642;2024-01-30T07:39:03;9.55;;;3.72;;
81950;SDS011;71452;52.562;5.642;2024-01-30T07:41:32;5.97;;;3.85;;
81950;SDS011;71452;52.562;5.642;2024-01-30T07:44:02;6.38;;;3.53;;
81950;SDS011;71452;52.562;5.642;2024-01-30T07:46:32;6.07;;;3.50;;
81950;SDS011;71452;52.562;5.642;2024-01-30T07:49:01;5.35;;;3.38;;
81950;SDS011;71452;52.562;5.642;2024-01-30T07:51:30;6.53;;;3.75;;
81950;SDS011;71452;52.562;5.642;2024-01-30T07:54:02;8.07;;;3.80;;
81950;SDS011;71452;52.562;5.642;2024-01-30T07:56:31;6.35;;;3.85;;
81950;SDS011;71452;52.562;5.642;2024-01-30T07:59:01;7.80;;;3.67;;
81950;SDS011;71452;52.562;5.642;2024-01-30T08:01:30;5.00;;;3.17;;
81950;SDS011;71452;52.562;5.642;2024-01-30T08:03:59;5.45;;;3.67;;
81950;SDS011;71452;52.562;5.642;2024-01-30T08:06:28;9.02;;;3.38;;
81950;SDS011;71452;52.562;5.642;2024-01-30T08:08:57;6.10;;;3.53;;
81950;SDS011;71452;52.562;5.642;2024-01-30T08:11:29;9.10;;;4.70;;
81950;SDS011;71452;52.562;5.642;2024-01-30T08:13:58;5.43;;;3.70;;
81950;SDS011;71452;52.562;5.642;2024-01-30T08:16:27;8.85;;;3.70;;
81950;SDS011;71452;52.562;5.642;2024-01-30T08:18:57;7.80;;;4.00;;
81950;SDS011;71452;52.562;5.642;2024-01-30T08:21:26;5.55;;;3.35;;
81950;SDS011;71452;52.562;5.642;2024-01-30T08:23:56;9.13;;;3.67;;
81950;SDS011;71452;52.562;5.642;2024-01-30T08:26:25;5.45;;;3.55;;
81950;SDS011;71452;52.562;5.642;2024-01-30T08:28:57;7.60;;;3.60;;
81950;SDS011;71452;52.562;5.642;2024-01-30T08:31:26;5.97;;;3.70;;
81950;SDS011;71452;52.562;5.642;2024-01-30T08:33:55;6.07;;;3.38;;
81950;SDS011;71452;52.562;5.642;2024-01-30T08:36:24;5.28;;;3.38;;
81950;SDS011;71452;52.562;5.642;2024-01-30T08:38:54;10.32;;;3.30;;
81950;SDS011;71452;52.562;5.642;2024-01-30T08:41:24;5.32;;;3.10;;
81950;SDS011;71452;52.562;5.642;2024-01-30T08:43:59;7.93;;;3.40;;
81950;SDS011;71452;52.562;5.642;2024-01-30T08:46:28;6.90;;;3.53;;
81950;SDS011;71452;52.562;5.642;2024-01-30T08:48:58;6.70;;;2.90;;
81950;SDS011;71452;52.562;5.642;2024-01-30T08:51:27;5.97;;;3.20;;
81950;SDS011;71452;52.562;5.642;2024-01-30T08:53:56;10.32;;;3.65;;
81950;SDS011;71452;52.562;5.642;2024-01-30T08:56:25;4.65;;;3.28;;
81950;SDS011;71452;52.562;5.642;2024-01-30T08:58:55;7.90;;;3.40;;
81950;SDS011;71452;52.562;5.642;2024-01-30T09:01:27;5.50;;;3.92;;
81950;SDS011;71452;52.562;5.642;2024-01-30T09:03:56;6.13;;;3.53;;
81950;SDS011;71452;52.562;5.642;2024-01-30T09:06:25;7.28;;;3.25;;
81950;SDS011;71452;52.562;5.642;2024-01-30T09:08:54;6.95;;;3.92;;
81950;SDS011;71452;52.562;5.642;2024-01-30T09:11:24;8.38;;;3.30;;
81950;SDS011;71452;52.562;5.642;2024-01-30T09:13:53;6.95;;;3.58;;
81950;SDS011;71452;52.562;5.642;2024-01-30T09:16:22;5.72;;;3.35;;
81950;SDS011;71452;52.562;5.642;2024-01-30T09:18:54;7.32;;;3.30;;
81950;SDS011;71452;52.562;5.642;2024-01-30T09:21:23;10.05;;;3.92;;
81950;SDS011;71452;52.562;5.642;2024-01-30T09:23:53;5.43;;;3.70;;
81950;SDS011;71452;52.562;5.642;2024-01-30T09:26:23;7.90;;;4.07;;
81950;SDS011;71452;52.562;5.642;2024-01-30T09:28:52;8.48;;;3.85;;
81950;SDS011;71452;52.562;5.642;2024-01-30T09:31:21;10.13;;;4.20;;
81950;SDS011;71452;52.562;5.642;2024-01-30T09:33:50;6.70;;;3.55;;
81950;SDS011;71452;52.562;5.642;2024-01-30T09:36:22;8.68;;;3.83;;
81950;SDS011;71452;52.562;5.642;2024-01-30T09:38:51;7.28;;;3.65;;
81950;SDS011;71452;52.562;5.642;2024-01-30T09:41:20;6.20;;;3.53;;
81950;SDS011;71452;52.562;5.642;2024-01-30T09:43:53;7.70;;;3.63;;
81950;SDS011;71452;52.562;5.642;2024-01-30T09:46:26;5.88;;;3.22;;
81950;SDS011;71452;52.562;5.642;2024-01-30T09:48:56;5.97;;;2.95;;
81950;SDS011;71452;52.562;5.642;2024-01-30T09:51:29;6.93;;;3.95;;
81950;SDS011;71452;52.562;5.642;2024-01-30T09:53:59;5.55;;;3.60;;
81950;SDS011;71452;52.562;5.642;2024-01-30T09:56:31;6.82;;;3.95;;
81950;SDS011;71452;52.562;5.642;2024-01-30T09:59:00;14.05;;;4.68;;
81950;SDS011;71452;52.562;5.642;2024-01-30T10:01:29;9.02;;;3.75;;
81950;SDS011;71452;52.562;5.642;2024-01-30T10:04:00;7.60;;;3.92;;
81950;SDS011;71452;52.562;5.642;2024-01-30T10:06:32;14.00;;;3.97;;
81950;SDS011;71452;52.562;5.642;2024-01-30T10:09:01;8.25;;;4.07;;
81950;SDS011;71452;52.562;5.642;2024-01-30T10:11:31;11.27;;;4.15;;
81950;SDS011;71452;52.562;5.642;2024-01-30T10:14:00;6.70;;;3.20;;
81950;SDS011;71452;52.562;5.642;2024-01-30T10:16:29;6.78;;;4.53;;
81950;SDS011;71452;52.562;5.642;2024-01-30T10:18:58;11.13;;;4.20;;
81950;SDS011;71452;52.562;5.642;2024-01-30T10:21:32;9.23;;;4.28;;
81950;SDS011;71452;52.562;5.642;2024-01-30T10:24:04;10.05;;;4.05;;
81950;SDS011;71452;52.562;5.642;2024-01-30T10:26:34;9.45;;;4.05;;
81950;SDS011;71452;52.562;5.642;2024-01-30T10:29:03;8.70;;;4.22;;
81950;SDS011;71452;52.562;5.642;2024-01-30T10:31:32;8.18;;;4.28;;
81950;SDS011;71452;52.562;5.642;2024-01-30T10:34:02;10.98;;;4.78;;
81950;SDS011;71452;52.562;5.642;2024-01-30T10:36:34;7.30;;;4.00;;
81950;SDS011;71452;52.562;5.642;2024-01-30T10:39:08;5.55;;;3.85;;
81950;SDS011;71452;52.562;5.642;2024-01-30T10:41:39;8.02;;;4.50;;
81950;SDS011;71452;52.562;5.642;2024-01-30T10:44:12;7.13;;;3.95;;
81950;SDS011;71452;52.562;5.642;2024-01-30T10:46:47;9.68;;;3.70;;
81950;SDS011;71452;52.562;5.642;2024-01-30T10:49:25;10.73;;;4.70;;
81950;SDS011;71452;52.562;5.642;2024-01-30T10:51:57;8.15;;;4.30;;
81950;SDS011;71452;52.562;5.642;2024-01-30T10:54:26;6.55;;;3.53;;
81950;SDS011;71452;52.562;5.642;2024-01-30T10:56:57;5.90;;;3.20;;
81950;SDS011;71452;52.562;5.642;2024-01-30T10:59:29;12.00;;;5.03;;
81950;SDS011;71452;52.562;5.642;2024-01-30T11:01:59;6.15;;;3.72;;
81950;SDS011;71452;52.562;5.642;2024-01-30T11:04:35;5.63;;;3.20;;
81950;SDS011;71452;52.562;5.642;2024-01-30T11:07:16;8.60;;;4.03;;
81950;SDS011;71452;52.562;5.642;2024-01-30T11:09:49;7.72;;;4.20;;
81950;SDS011;71452;52.562;5.642;2024-01-30T11:12:22;6.90;;;3.42;;
81950;SDS011;71452;52.562;5.642;2024-01-30T11:17:44;6.68;;;2.10;;
81950;SDS011;71452;52.562;5.642;2024-01-30T11:20:19;2.72;;;1.50;;
81950;SDS011;71452;52.562;5.642;2024-01-30T11:22:52;11.07;;;2.25;;
81950;SDS011;71452;52.562;5.642;2024-01-30T11:25:23;5.55;;;1.63;;
81950;SDS011;71452;52.562;5.642;2024-01-30T11:27:53;3.30;;;1.52;;
81950;SDS011;71452;52.562;5.642;2024-01-30T11:30:24;1.83;;;1.13;;
81950;SDS011;71452;52.562;5.642;2024-01-30T11:32:58;2.03;;;1.10;;
81950;SDS011;71452;52.562;5.642;2024-01-30T11:35:32;1.60;;;1.20;;
81950;SDS011;71452;52.562;5.642;2024-01-30T11:38:04;0.93;;;0.70;;
81950;SDS011;71452;52.562;5.642;2024-01-30T11:43:06;2.90;;;0.75;;
81950;SDS011;71452;52.562;5.642;2024-01-30T11:45:36;2.05;;;0.82;;
81950;SDS011;71452;52.562;5.642;2024-01-30T11:48:07;2.60;;;0.60;;
81950;SDS011;71452;52.562;5.642;2024-01-30T11:50:37;0.63;;;0.40;;
81950;SDS011;71452;52.562;5.642;2024-01-30T11:53:09;1.80;;;0.52;;
81950;SDS011;71452;52.562;5.642;2024-01-30T11:55:38;1.52;;;0.70;;
81950;SDS011;71452;52.562;5.642;2024-01-30T11:58:08;1.77;;;0.80;;
81950;SDS011;71452;52.562;5.642;2024-01-30T12:00:37;1.55;;;0.50;;
81950;SDS011;71452;52.562;5.642;2024-01-30T12:03:07;1.25;;;0.47;;
81950;SDS011;71452;52.562;5.642;2024-01-30T12:05:36;0.85;;;0.40;;
81950;SDS011;71452;52.562;5.642;2024-01-30T12:08:16;1.08;;;0.25;;
81950;SDS011;71452;52.562;5.642;2024-01-30T12:10:45;0.75;;;0.30;;
81950;SDS011;71452;52.562;5.642;2024-01-30T12:13:15;0.80;;;0.80;;
81950;SDS011;71452;52.562;5.642;2024-01-30T12:15:45;0.30;;;0.20;;
81950;SDS011;71452;52.562;5.642;2024-01-30T12:18:14;0.68;;;0.57;;
81950;SDS011;71452;52.562;5.642;2024-01-30T12:20:56;0.47;;;0.30;;
81950;SDS011;71452;52.562;5.642;2024-01-30T12:23:28;0.50;;;0.20;;
81950;SDS011;71452;52.562;5.642;2024-01-30T12:25:58;0.80;;;0.30;;
81950;SDS011;71452;52.562;5.642;2024-01-30T12:28:29;0.40;;;0.20;;
81950;SDS011;71452;52.562;5.642;2024-01-30T12:31:01;2.05;;;0.70;;
81950;SDS011;71452;52.562;5.642;2024-01-30T12:33:31;0.50;;;0.30;;
81950;SDS011;71452;52.562;5.642;2024-01-30T12:36:01;2.17;;;0.47;;
81950;SDS011;71452;52.562;5.642;2024-01-30T12:38:33;0.68;;;0.45;;
81950;SDS011;71452;52.562;5.642;2024-01-30T12:41:04;1.45;;;0.60;;
81950;SDS011;71452;52.562;5.642;2024-01-30T12:43:36;0.52;;;0.40;;
81950;SDS011;71452;52.562;5.642;2024-01-30T12:46:05;2.08;;;1.35;;
81950;SDS011;71452;52.562;5.642;2024-01-30T12:48:34;1.23;;;0.70;;
81950;SDS011;71452;52.562;5.642;2024-01-30T12:51:03;6.03;;;0.73;;
81950;SDS011;71452;52.562;5.642;2024-01-30T12:53:35;0.98;;;0.60;;
81950;SDS011;71452;52.562;5.642;2024-01-30T12:56:05;2.67;;;0.60;;
81950;SDS011;71452;52.562;5.642;2024-01-30T12:58:34;1.00;;;0.80;;
81950;SDS011;71452;52.562;5.642;2024-01-30T13:01:04;1.35;;;1.05;;
81950;SDS011;71452;52.562;5.642;2024-01-30T13:03:33;0.63;;;0.50;;
81950;SDS011;71452;52.562;5.642;2024-01-30T13:06:03;0.60;;;0.60;;
81950;SDS011;71452;52.562;5.642;2024-01-30T13:08:37;2.60;;;0.80;;
81950;SDS011;71452;52.562;5.642;2024-01-30T13:11:06;1.42;;;0.70;;
81950;SDS011;71452;52.562;5.642;2024-01-30T13:13:35;0.77;;;0.30;;
81950;SDS011;71452;52.562;5.642;2024-01-30T13:16:05;2.05;;;0.32;;
81950;SDS011;71452;52.562;5.642;2024-01-30T13:18:34;3.08;;;0.80;;
81950;SDS011;71452;52.562;5.642;2024-01-30T13:21:04;1.33;;;0.40;;
81950;SDS011;71452;52.562;5.642;2024-01-30T13:23:33;1.42;;;0.40;;
81950;SDS011;71452;52.562;5.642;2024-01-30T13:26:05;0.50;;;0.43;;
81950;SDS011;71452;52.562;5.642;2024-01-30T13:28:37;3.10;;;0.80;;
81950;SDS011;71452;52.562;5.642;2024-01-30T13:31:06;2.25;;;0.60;;
81950;SDS011;71452;52.562;5.642;2024-01-30T13:33:36;2.08;;;0.60;;
81950;SDS011;71452;52.562;5.642;2024-01-30T13:36:05;1.05;;;0.70;;
81950;SDS011;71452;52.562;5.642;2024-01-30T13:38:36;1.38;;;0.90;;
81950;SDS011;71452;52.562;5.642;2024-01-30T13:41:08;0.88;;;0.57;;
81950;SDS011;71452;52.562;5.642;2024-01-30T13:43:38;1.88;;;0.80;;
81950;SDS011;71452;52.562;5.642;2024-01-30T13:46:09;1.42;;;0.57;;
81950;SDS011;71452;52.562;5.642;2024-01-30T13:48:38;1.10;;;0.60;;
81950;SDS011;71452;52.562;5.642;2024-01-30T13:51:07;4.43;;;0.80;;
81950;SDS011;71452;52.562;5.642;2024-01-30T13:53:38;0.90;;;0.60;;
81950;SDS011;71452;52.562;5.642;2024-01-30T13:56:10;2.42;;;0.98;;
81950;SDS011;71452;52.562;5.642;2024-01-30T13:58:39;1.08;;;0.98;;
81950;SDS011;71452;52.562;5.642;2024-01-30T14:01:08;2.47;;;0.80;;
81950;SDS011;71452;52.562;5.642;2024-01-30T14:03:38;4.10;;;1.13;;
81950;SDS011;71452;52.562;5.642;2024-01-30T14:06:07;0.60;;;0.60;;
81950;SDS011;71452;52.562;5.642;2024-01-30T14:08:37;1.13;;;0.55;;
81950;SDS011;71452;52.562;5.642;2024-01-30T14:11:06;2.90;;;1.00;;
81950;SDS011;71452;52.562;5.642;2024-01-30T14:13:40;5.22;;;1.10;;
81950;SDS011;71452;52.562;5.642;2024-01-30T14:16:10;1.27;;;0.85;;
81950;SDS011;71452;52.562;5.642;2024-01-30T14:18:39;4.15;;;1.40;;
81950;SDS011;71452;52.562;5.642;2024-01-30T14:21:12;1.88;;;0.60;;
81950;SDS011;71452;52.562;5.642;2024-01-30T14:23:41;1.88;;;0.82;;
81950;SDS011;71452;52.562;5.642;2024-01-30T14:26:10;1.27;;;0.80;;
81950;SDS011;71452;52.562;5.642;2024-01-30T14:28:42;1.35;;;0.60;;
81950;SDS011;71452;52.562;5.642;2024-01-30T14:31:12;5.60;;;0.80;;
81950;SDS011;71452;52.562;5.642;2024-01-30T14:33:45;1.25;;;0.73;;
81950;SDS011;71452;52.562;5.642;2024-01-30T14:36:17;1.48;;;0.50;;
81950;SDS011;71452;52.562;5.642;2024-01-30T14:38:46;1.15;;;0.47;;
81950;SDS011;71452;52.562;5.642;2024-01-30T14:41:15;1.83;;;0.60;;
81950;SDS011;71452;52.562;5.642;2024-01-30T14:43:49;1.00;;;0.50;;
81950;SDS011;71452;52.562;5.642;2024-01-30T14:46:19;0.80;;;0.77;;
81950;SDS011;71452;52.562;5.642;2024-01-30T14:48:50;1.08;;;0.82;;
81950;SDS011;71452;52.562;5.642;2024-01-30T14:51:20;0.50;;;0.38;;
81950;SDS011;71452;52.562;5.642;2024-01-30T14:53:49;1.75;;;0.90;;
81950;SDS011;71452;52.562;5.642;2024-01-30T14:56:18;1.88;;;1.52;;
81950;SDS011;71452;52.562;5.642;2024-01-30T14:58:51;1.85;;;0.57;;
81950;SDS011;71452;52.562;5.642;2024-01-30T15:01:21;0.80;;;0.60;;
81950;SDS011;71452;52.562;5.642;2024-01-30T15:03:51;0.65;;;0.50;;
81950;SDS011;71452;52.562;5.642;2024-01-30T15:06:21;1.17;;;0.52;;
81950;SDS011;71452;52.562;5.642;2024-01-30T15:08:51;2.05;;;0.60;;